Time;durP1;ratioP1;P1;durP2;ratioP2;P2;SDS_P1;SDS_P2;PMS_P1;PMS_P2;Temp;Humidity;BMP_temperature;BMP_pressure;BME280_temperature;BME280_humidity;BME280_pressure;Samples;Min_cycle;Max_cycle;Signal;HPM_P1;HPM_P2
2022/02/26 00:01:26;;;;;;;11.38;2.22;;;5.10;99.90;;;;;;5163234;22;20013;-65
2022/02/26 00:03:27;;;;;;;5.68;2.05;;;5.10;99.90;;;;;;5165455;22;20004;-65
2022/02/26 00:05:27;;;;;;;6.93;2.20;;;5.00;99.90;;;;;;5164468;22;20011;-65
2022/02/26 00:07:28;;;;;;;6.18;2.22;;;5.00;99.90;;;;;;5165424;22;20066;-65
2022/02/26 00:09:29;;;;;;;6.63;2.40;;;5.00;99.90;;;;;;5165183;22;20016;-64
2022/02/26 00:11:30;;;;;;;8.02;2.30;;;4.90;99.90;;;;;;5164281;22;20016;-65
2022/02/26 00:13:31;;;;;;;10.10;2.17;;;4.90;99.90;;;;;;5164727;22;20015;-65
2022/02/26 00:15:31;;;;;;;12.35;2.55;;;4.90;99.90;;;;;;5163702;22;20016;-64
2022/02/26 00:17:33;;;;;;;11.75;2.65;;;4.90;99.90;;;;;;5164516;22;20110;-65
2022/02/26 00:19:35;;;;;;;8.23;2.67;;;4.90;99.90;;;;;;5164927;22;20106;-64
2022/02/26 00:21:36;;;;;;;9.20;2.70;;;4.90;99.90;;;;;;5162498;22;20012;-64
2022/02/26 00:23:36;;;;;;;11.13;2.90;;;4.80;99.90;;;;;;5139614;23;20015;-64
2022/02/26 00:25:37;;;;;;;13.60;3.15;;;4.80;99.90;;;;;;5138391;23;20445;-65
2022/02/26 00:27:38;;;;;;;6.80;2.60;;;4.80;99.90;;;;;;5141050;23;20059;-64
2022/02/26 00:29:40;;;;;;;9.65;3.00;;;4.80;99.90;;;;;;5140942;23;20013;-65
2022/02/26 00:31:40;;;;;;;10.45;3.70;;;4.80;99.90;;;;;;5139871;23;20440;-64
2022/02/26 00:33:41;;;;;;;14.93;4.60;;;4.80;99.90;;;;;;5140684;23;20015;-64
2022/02/26 00:35:42;;;;;;;14.13;4.07;;;4.70;99.90;;;;;;5139837;23;20017;-64
2022/02/26 00:37:43;;;;;;;11.48;3.75;;;4.70;99.90;;;;;;5140708;23;20036;-64
2022/02/26 00:39:43;;;;;;;8.35;3.13;;;4.70;99.90;;;;;;5140535;23;20021;-64
2022/02/26 00:41:44;;;;;;;12.50;2.75;;;4.70;99.90;;;;;;5139417;23;20482;-64
2022/02/26 00:43:45;;;;;;;12.10;3.05;;;4.70;99.90;;;;;;5140638;23;20048;-64
2022/02/26 00:45:46;;;;;;;15.90;4.22;;;4.70;99.90;;;;;;5139554;23;20045;-64
2022/02/26 00:47:48;;;;;;;11.27;3.03;;;4.70;99.90;;;;;;5140446;23;20031;-64
2022/02/26 00:49:50;;;;;;;16.67;3.40;;;4.70;99.90;;;;;;5139950;23;20025;-64
2022/02/26 00:51:51;;;;;;;12.05;3.38;;;4.70;99.90;;;;;;5139449;23;20016;-64
2022/02/26 00:53:52;;;;;;;9.63;2.90;;;4.70;99.90;;;;;;5140187;23;20008;-64
2022/02/26 00:55:52;;;;;;;14.95;3.25;;;4.70;99.90;;;;;;5139066;23;20017;-64
2022/02/26 00:57:53;;;;;;;9.35;2.88;;;4.70;99.90;;;;;;5139872;23;20372;-64
2022/02/26 00:59:54;;;;;;;17.58;3.35;;;4.70;99.90;;;;;;5138582;23;20120;-64
2022/02/26 01:01:54;;;;;;;16.25;2.92;;;4.70;99.90;;;;;;5138034;23;20012;-64
2022/02/26 01:03:55;;;;;;;13.07;3.30;;;4.70;99.90;;;;;;5138908;23;20009;-64
2022/02/26 01:05:56;;;;;;;15.68;3.88;;;4.70;99.90;;;;;;5138741;23;20421;-64
2022/02/26 01:07:56;;;;;;;12.40;3.72;;;4.70;99.90;;;;;;5139295;23;20012;-64
2022/02/26 01:09:57;;;;;;;11.32;3.13;;;4.70;99.90;;;;;;5139501;23;20020;-64
2022/02/26 01:11:58;;;;;;;10.48;3.13;;;4.70;99.90;;;;;;5138893;23;20013;-64
2022/02/26 01:13:59;;;;;;;9.32;2.95;;;4.70;99.90;;;;;;5140916;23;20013;-64
2022/02/26 01:15:59;;;;;;;8.45;2.80;;;4.70;99.90;;;;;;5140637;23;20009;-64
2022/02/26 01:18:00;;;;;;;11.25;2.65;;;4.70;99.90;;;;;;5165667;22;20013;-64
2022/02/26 01:20:01;;;;;;;8.38;2.88;;;4.70;99.90;;;;;;5141054;23;20009;-66
2022/02/26 01:22:03;;;;;;;12.35;3.70;;;4.70;99.90;;;;;;5138741;23;20054;-64
2022/02/26 01:24:04;;;;;;;7.95;2.30;;;4.70;99.90;;;;;;5139149;23;20011;-64
2022/02/26 01:26:04;;;;;;;10.02;3.15;;;4.70;99.90;;;;;;5138216;23;20008;-64
2022/02/26 01:28:05;;;;;;;10.48;2.90;;;4.70;99.90;;;;;;5139092;23;20011;-64
2022/02/26 01:30:07;;;;;;;14.10;3.25;;;4.70;99.90;;;;;;5138473;23;20009;-65
2022/02/26 01:32:08;;;;;;;16.65;3.17;;;4.60;99.90;;;;;;5137742;23;20040;-64
2022/02/26 01:34:09;;;;;;;8.48;2.75;;;4.60;99.90;;;;;;5140307;23;20015;-65
2022/02/26 01:36:12;;;;;;;13.10;3.30;;;4.60;99.90;;;;;;5139311;23;20077;-65
2022/02/26 01:38:12;;;;;;;9.60;2.63;;;4.60;99.90;;;;;;5139583;23;20393;-65
2022/02/26 01:40:13;;;;;;;8.40;2.97;;;4.60;99.90;;;;;;5138899;23;20008;-66
2022/02/26 01:42:14;;;;;;;8.90;2.65;;;4.60;99.90;;;;;;5139814;23;20090;-65
2022/02/26 01:44:15;;;;;;;10.38;2.70;;;4.60;99.90;;;;;;5139769;23;20437;-64
2022/02/26 01:46:15;;;;;;;10.00;3.22;;;4.60;99.90;;;;;;5138676;23;20013;-65
2022/02/26 01:48:16;;;;;;;12.40;2.97;;;4.50;99.90;;;;;;5139909;23;20062;-64
2022/02/26 01:50:16;;;;;;;7.63;2.85;;;4.50;99.90;;;;;;5139246;23;20015;-64
2022/02/26 01:52:19;;;;;;;8.10;3.45;;;4.50;99.90;;;;;;5139522;23;20437;-64
2022/02/26 01:54:19;;;;;;;14.27;3.00;;;4.50;99.90;;;;;;5138497;23;20008;-64
2022/02/26 01:56:20;;;;;;;11.00;3.65;;;4.50;99.90;;;;;;5138640;23;20012;-64
2022/02/26 01:58:20;;;;;;;13.02;3.53;;;4.50;99.90;;;;;;5139657;23;20437;-64
2022/02/26 02:00:21;;;;;;;11.40;3.25;;;4.50;99.90;;;;;;5138385;23;20067;-64
2022/02/26 02:02:22;;;;;;;13.57;3.80;;;4.40;99.90;;;;;;5139008;23;20029;-64
2022/02/26 02:04:23;;;;;;;10.65;2.88;;;4.40;99.90;;;;;;5139145;23;20015;-64
2022/02/26 02:06:23;;;;;;;10.65;3.10;;;4.40;99.90;;;;;;5138509;23;20008;-64
2022/02/26 02:08:24;;;;;;;13.95;3.22;;;4.40;99.90;;;;;;5138806;23;20017;-64
2022/02/26 02:10:26;;;;;;;11.00;2.95;;;4.40;99.90;;;;;;5138150;23;20017;-64
2022/02/26 02:12:27;;;;;;;14.57;3.55;;;4.30;99.90;;;;;;5138875;23;20009;-64
2022/02/26 02:14:27;;;;;;;12.38;3.97;;;4.30;99.90;;;;;;5138629;23;20034;-64
2022/02/26 02:16:28;;;;;;;11.05;3.58;;;4.30;99.90;;;;;;5137618;23;20393;-64
2022/02/26 02:18:29;;;;;;;17.00;4.40;;;4.30;99.90;;;;;;5138333;23;20012;-64
2022/02/26 02:20:29;;;;;;;10.25;3.63;;;4.30;99.90;;;;;;5137697;23;20016;-64
2022/02/26 02:22:30;;;;;;;14.60;3.70;;;4.30;99.90;;;;;;5138377;23;20084;-64
2022/02/26 02:24:30;;;;;;;15.77;4.20;;;4.30;99.90;;;;;;5138321;23;20020;-64
2022/02/26 02:26:34;;;;;;;13.07;3.88;;;4.30;99.90;;;;;;5112331;23;20013;-65
2022/02/26 02:28:34;;;;;;;11.93;4.38;;;4.30;99.90;;;;;;5113271;23;20013;-64
2022/02/26 02:30:36;;;;;;;13.25;3.85;;;4.30;99.90;;;;;;5112886;23;20029;-64
2022/02/26 02:32:36;;;;;;;14.30;4.13;;;4.30;99.90;;;;;;5113435;23;20020;-64
2022/02/26 02:34:37;;;;;;;13.90;4.00;;;4.20;99.90;;;;;;5113474;23;20326;-64
2022/02/26 02:36:42;;;;;;;17.45;4.07;;;4.20;99.90;;;;;;5137420;23;20009;-65
2022/02/26 02:38:43;;;;;;;12.88;4.07;;;4.30;99.90;;;;;;5139401;23;20022;-65
2022/02/26 02:40:46;;;;;;;16.70;4.60;;;4.30;99.90;;;;;;5137460;23;20394;-64
2022/02/26 02:42:47;;;;;;;9.90;3.72;;;4.20;99.90;;;;;;5139155;23;20015;-64
2022/02/26 02:44:47;;;;;;;11.85;4.57;;;4.20;99.90;;;;;;5138935;23;20028;-64
2022/02/26 02:46:48;;;;;;;13.70;4.13;;;4.20;99.90;;;;;;5137922;23;20075;-64
2022/02/26 02:48:48;;;;;;;13.38;4.07;;;4.20;99.90;;;;;;5139124;23;20009;-64
2022/02/26 02:50:50;;;;;;;11.35;3.97;;;4.20;99.90;;;;;;5138334;23;20421;-64
2022/02/26 02:52:50;;;;;;;15.85;5.63;;;4.20;99.90;;;;;;5139066;23;20013;-64
2022/02/26 02:54:51;;;;;;;21.90;6.30;;;4.20;99.90;;;;;;5138798;23;20099;-64
2022/02/26 02:56:52;;;;;;;16.65;5.90;;;4.20;99.90;;;;;;5137651;23;20001;-64
2022/02/26 02:58:53;;;;;;;13.70;5.07;;;4.20;99.90;;;;;;5143029;22;20024;-64
2022/02/26 03:00:56;;;;;;;11.35;4.38;;;4.20;99.90;;;;;;5163482;22;20012;-64
2022/02/26 03:02:57;;;;;;;9.10;4.35;;;4.20;99.90;;;;;;5163820;22;20083;-64
2022/02/26 03:04:57;;;;;;;10.18;3.97;;;4.20;99.90;;;;;;5163570;22;20004;-64
2022/02/26 03:06:58;;;;;;;7.90;4.05;;;4.20;99.90;;;;;;5163068;22;20318;-64
2022/02/26 03:08:58;;;;;;;8.88;3.88;;;4.20;99.90;;;;;;5163992;22;20020;-64
2022/02/26 03:10:59;;;;;;;10.80;4.57;;;4.20;99.90;;;;;;5162540;22;20008;-64
2022/02/26 03:12:59;;;;;;;11.15;3.78;;;4.20;99.90;;;;;;5163687;22;20012;-64
2022/02/26 03:15:00;;;;;;;13.82;4.18;;;4.20;99.90;;;;;;5163635;22;20091;-64
2022/02/26 03:17:01;;;;;;;9.75;3.78;;;4.20;99.90;;;;;;5162324;22;20034;-66
2022/02/26 03:19:01;;;;;;;8.95;3.60;;;4.20;99.90;;;;;;5164202;22;20012;-65
2022/02/26 03:21:02;;;;;;;11.13;3.80;;;4.30;99.90;;;;;;5163371;22;20547;-64
2022/02/26 03:23:03;;;;;;;8.57;3.55;;;4.20;99.90;;;;;;5164417;22;20079;-64
2022/02/26 03:25:04;;;;;;;10.00;3.60;;;4.20;99.90;;;;;;5164078;22;20005;-65
2022/02/26 03:27:04;;;;;;;11.40;3.15;;;4.20;99.90;;;;;;5163571;22;20038;-64
2022/02/26 03:29:09;;;;;;;10.30;3.35;;;4.20;99.90;;;;;;5163778;22;20020;-64
2022/02/26 03:31:10;;;;;;;15.05;4.28;;;4.20;99.90;;;;;;5160820;23;20150;-64
2022/02/26 03:33:11;;;;;;;11.88;4.45;;;4.10;99.90;;;;;;5163398;22;20004;-64
2022/02/26 03:35:13;;;;;;;9.70;3.70;;;4.10;99.90;;;;;;5161971;22;20391;-64
2022/02/26 03:37:14;;;;;;;13.35;4.32;;;4.10;99.90;;;;;;5163754;22;20234;-64
2022/02/26 03:39:15;;;;;;;8.90;3.67;;;4.10;99.90;;;;;;5161693;23;20016;-65
2022/02/26 03:41:15;;;;;;;13.07;4.03;;;4.10;99.90;;;;;;5163479;22;20015;-64
2022/02/26 03:43:16;;;;;;;12.15;4.40;;;4.10;99.90;;;;;;5164733;22;20333;-64
2022/02/26 03:45:17;;;;;;;13.02;3.75;;;4.10;99.90;;;;;;5163994;22;20012;-64
2022/02/26 03:47:18;;;;;;;9.57;4.18;;;4.00;99.90;;;;;;5163512;22;20570;-64
2022/02/26 03:49:19;;;;;;;10.30;3.75;;;4.00;99.90;;;;;;5164517;22;20075;-64
2022/02/26 03:51:20;;;;;;;12.75;4.03;;;4.00;99.90;;;;;;5163590;22;20021;-64
2022/02/26 03:53:20;;;;;;;12.90;4.13;;;4.00;99.90;;;;;;5164379;22;20415;-64
2022/02/26 03:55:21;;;;;;;10.20;3.65;;;4.00;99.90;;;;;;5163050;22;20417;-64
2022/02/26 03:57:23;;;;;;;10.30;3.95;;;4.00;99.90;;;;;;5166113;22;20016;-64
2022/02/26 03:59:23;;;;;;;7.03;3.35;;;4.00;99.90;;;;;;5165671;22;20027;-64
2022/02/26 04:01:24;;;;;;;8.48;3.88;;;3.90;99.90;;;;;;5165067;22;20420;-64
2022/02/26 04:03:24;;;;;;;8.88;3.75;;;3.90;99.90;;;;;;5165254;22;20004;-64
2022/02/26 04:05:25;;;;;;;11.80;3.83;;;3.90;99.90;;;;;;5164537;22;20012;-64
2022/02/26 04:07:26;;;;;;;9.00;3.60;;;3.90;99.90;;;;;;5165332;22;20018;-64
2022/02/26 04:09:26;;;;;;;9.35;3.55;;;3.80;99.90;;;;;;5165323;22;20028;-64
2022/02/26 04:11:27;;;;;;;14.32;4.13;;;3.80;99.90;;;;;;5164478;22;20023;-64
2022/02/26 04:13:27;;;;;;;9.90;4.07;;;3.80;99.90;;;;;;5165313;22;20472;-64
2022/02/26 04:15:28;;;;;;;11.77;4.25;;;3.80;99.90;;;;;;5164320;22;20313;-64
2022/02/26 04:17:28;;;;;;;12.00;4.85;;;3.80;99.90;;;;;;5164746;22;20012;-64
2022/02/26 04:19:29;;;;;;;11.88;4.70;;;3.80;99.90;;;;;;5164916;22;20440;-64
2022/02/26 04:21:30;;;;;;;14.65;5.15;;;3.80;99.90;;;;;;5164221;22;20005;-64
2022/02/26 04:23:30;;;;;;;9.98;4.07;;;3.80;99.90;;;;;;5164817;22;20937;-64
2022/02/26 04:25:31;;;;;;;14.13;4.63;;;3.80;99.90;;;;;;5164065;22;20016;-64
2022/02/26 04:27:32;;;;;;;11.05;4.30;;;3.70;99.90;;;;;;5164421;22;20343;-65
2022/02/26 04:29:32;;;;;;;9.02;4.28;;;3.80;99.90;;;;;;5165408;22;20019;-65
2022/02/26 04:31:33;;;;;;;11.00;3.85;;;3.70;99.90;;;;;;5163933;22;20436;-65
2022/02/26 04:33:34;;;;;;;8.55;3.80;;;3.80;99.90;;;;;;5165704;22;20363;-65
2022/02/26 04:35:35;;;;;;;6.80;2.97;;;3.80;99.90;;;;;;5163712;22;20039;-65
2022/02/26 04:37:36;;;;;;;12.65;3.95;;;3.70;99.90;;;;;;5165213;22;20008;-64
2022/02/26 04:39:36;;;;;;;14.40;4.85;;;3.70;99.90;;;;;;5165280;22;20387;-65
2022/02/26 04:41:37;;;;;;;13.75;4.75;;;3.70;99.90;;;;;;5164297;22;20087;-64
2022/02/26 04:43:39;;;;;;;10.80;4.25;;;3.70;99.90;;;;;;5164916;22;20062;-65
2022/02/26 04:45:40;;;;;;;10.45;4.97;;;3.70;99.90;;;;;;5163868;22;20015;-65
2022/02/26 04:47:42;;;;;;;13.23;5.65;;;3.70;99.90;;;;;;5164541;22;20084;-65
2022/02/26 04:49:42;;;;;;;12.93;4.72;;;3.70;99.90;;;;;;5164321;22;20020;-64
2022/02/26 04:51:43;;;;;;;12.75;4.43;;;3.60;99.90;;;;;;5164990;22;20056;-65
2022/02/26 04:53:43;;;;;;;15.43;4.68;;;3.60;99.90;;;;;;5165664;22;20011;-65
2022/02/26 04:55:44;;;;;;;14.98;4.95;;;3.60;99.90;;;;;;5164584;22;20008;-64
2022/02/26 04:57:45;;;;;;;16.33;5.25;;;3.60;99.90;;;;;;5165404;22;20009;-64
2022/02/26 04:59:45;;;;;;;10.52;5.07;;;3.60;99.90;;;;;;5165441;22;20348;-64
2022/02/26 05:01:46;;;;;;;11.30;4.30;;;3.60;99.90;;;;;;5163675;22;20019;-65
2022/02/26 05:03:47;;;;;;;10.20;4.47;;;3.60;99.90;;;;;;5165206;22;20004;-64
2022/02/26 05:05:47;;;;;;;8.25;3.83;;;3.50;99.90;;;;;;5164332;22;20024;-65
2022/02/26 05:07:48;;;;;;;14.35;4.97;;;3.50;99.90;;;;;;5164965;22;20069;-65
2022/02/26 05:09:49;;;;;;;13.00;5.22;;;3.50;99.90;;;;;;5165128;22;20024;-65
2022/02/26 05:11:49;;;;;;;13.93;5.25;;;3.50;99.90;;;;;;5164250;22;20372;-64
2022/02/26 05:13:50;;;;;;;9.20;4.93;;;3.50;99.90;;;;;;5165078;22;20004;-64
2022/02/26 05:15:51;;;;;;;11.38;4.43;;;3.50;99.90;;;;;;5163849;22;20336;-64
2022/02/26 05:17:51;;;;;;;10.23;4.50;;;3.50;99.90;;;;;;5164549;22;20061;-64
2022/02/26 05:19:52;;;;;;;13.10;4.65;;;3.50;99.90;;;;;;5164874;22;20091;-64
2022/02/26 05:21:52;;;;;;;13.35;4.97;;;3.50;99.90;;;;;;5163325;22;20008;-65
2022/02/26 05:23:53;;;;;;;8.50;4.07;;;3.40;99.90;;;;;;5164859;22;20463;-64
2022/02/26 05:25:54;;;;;;;15.35;4.70;;;3.40;99.90;;;;;;5163957;22;20008;-64
2022/02/26 05:27:54;;;;;;;10.43;3.72;;;3.40;99.90;;;;;;5165104;22;20436;-64
2022/02/26 05:29:55;;;;;;;16.83;4.57;;;3.40;99.90;;;;;;5165013;22;20016;-64
2022/02/26 05:31:55;;;;;;;15.35;4.07;;;3.40;99.90;;;;;;5163777;22;20511;-64
2022/02/26 05:33:56;;;;;;;7.97;3.70;;;3.40;99.90;;;;;;5164558;22;20011;-64
2022/02/26 05:35:56;;;;;;;9.80;3.90;;;3.40;99.90;;;;;;5163543;22;20012;-64
2022/02/26 05:37:57;;;;;;;11.10;4.00;;;3.40;99.90;;;;;;5164484;22;20328;-65
2022/02/26 05:39:58;;;;;;;7.78;3.72;;;3.40;99.90;;;;;;5164363;22;20406;-64
2022/02/26 05:41:59;;;;;;;8.68;4.00;;;3.40;99.90;;;;;;5163419;22;20062;-64
2022/02/26 05:43:59;;;;;;;8.30;3.83;;;3.30;99.90;;;;;;5164085;22;20038;-65
2022/02/26 05:46:00;;;;;;;10.07;4.18;;;3.30;99.90;;;;;;5163356;22;20079;-64
2022/02/26 05:48:01;;;;;;;12.82;4.75;;;3.30;99.90;;;;;;5164097;22;20408;-64
2022/02/26 05:50:02;;;;;;;9.05;4.38;;;3.30;99.90;;;;;;5163500;22;20028;-64
2022/02/26 05:52:03;;;;;;;8.60;4.22;;;3.40;99.90;;;;;;5162782;22;20089;-65
2022/02/26 05:54:04;;;;;;;11.30;4.38;;;3.40;99.90;;;;;;5163963;22;20055;-65
2022/02/26 05:56:05;;;;;;;9.95;3.72;;;3.40;99.90;;;;;;5163615;22;20451;-65
2022/02/26 05:58:06;;;;;;;11.75;4.75;;;3.30;99.90;;;;;;5164230;22;20431;-64
2022/02/26 06:00:08;;;;;;;9.05;4.03;;;3.30;99.90;;;;;;5163477;22;20027;-65
2022/02/26 06:02:08;;;;;;;12.82;4.65;;;3.30;99.90;;;;;;5161833;23;20440;-64
2022/02/26 06:04:09;;;;;;;8.27;4.22;;;3.30;99.90;;;;;;5164224;22;20020;-64
2022/02/26 06:06:09;;;;;;;10.20;4.75;;;3.30;99.90;;;;;;5163268;22;20432;-64
2022/02/26 06:08:10;;;;;;;15.07;5.15;;;3.30;99.90;;;;;;5164114;22;20351;-64
2022/02/26 06:10:11;;;;;;;10.70;4.85;;;3.30;99.90;;;;;;5163148;22;20066;-65
2022/02/26 06:12:11;;;;;;;11.80;4.85;;;3.30;99.90;;;;;;5163876;22;20012;-65
2022/02/26 06:14:12;;;;;;;10.02;4.75;;;3.30;99.90;;;;;;5163451;22;20034;-65
2022/02/26 06:16:13;;;;;;;10.68;4.35;;;3.30;99.90;;;;;;5164070;22;20332;-65
2022/02/26 06:18:14;;;;;;;12.43;4.70;;;3.30;99.90;;;;;;5165240;22;20015;-65
2022/02/26 06:20:15;;;;;;;11.73;5.00;;;3.30;99.90;;;;;;5161279;22;20012;-65
2022/02/26 06:22:16;;;;;;;13.63;5.03;;;3.30;99.90;;;;;;5161958;22;20012;-65
2022/02/26 06:24:17;;;;;;;10.15;4.95;;;3.30;99.90;;;;;;5163335;22;20046;-64
2022/02/26 06:26:17;;;;;;;13.80;4.90;;;3.30;99.90;;;;;;5163749;22;20004;-65
2022/02/26 06:28:18;;;;;;;12.10;5.18;;;3.30;99.90;;;;;;5164396;22;20039;-65
2022/02/26 06:30:19;;;;;;;10.85;5.00;;;3.30;99.90;;;;;;5163652;22;20336;-65
2022/02/26 06:32:19;;;;;;;13.00;4.88;;;3.30;99.90;;;;;;5164236;22;20015;-65
2022/02/26 06:34:23;;;;;;;8.85;4.60;;;3.30;99.90;;;;;;5164282;22;20016;-65
2022/02/26 06:36:23;;;;;;;12.75;4.45;;;3.30;99.90;;;;;;5163237;22;20012;-64
2022/02/26 06:38:24;;;;;;;9.77;3.85;;;3.20;99.90;;;;;;5164446;22;20038;-64
2022/02/26 06:40:24;;;;;;;9.15;4.68;;;3.20;99.90;;;;;;5163321;22;20383;-64
2022/02/26 06:42:25;;;;;;;9.30;4.38;;;3.20;99.90;;;;;;5164190;22;20091;-64
2022/02/26 06:44:26;;;;;;;12.55;4.82;;;3.20;99.90;;;;;;5163959;22;20008;-64
2022/02/26 06:46:26;;;;;;;10.25;5.03;;;3.20;99.90;;;;;;5163296;22;20432;-64
2022/02/26 06:48:27;;;;;;;13.32;4.65;;;3.20;99.90;;;;;;5161794;23;20036;-64
2022/02/26 06:50:28;;;;;;;11.95;5.10;;;3.10;99.90;;;;;;5162456;22;21147;-64
2022/02/26 06:52:29;;;;;;;13.27;5.28;;;3.10;99.90;;;;;;5164249;22;20347;-64
2022/02/26 06:54:30;;;;;;;8.47;4.17;;;3.10;99.90;;;;;;5163481;22;20087;-64
2022/02/26 06:56:33;;;;;;;10.75;4.90;;;3.20;99.90;;;;;;5163080;22;20552;-64
2022/02/26 06:58:33;;;;;;;;;;;3.10;99.90;;;;;;5163709;22;20022;-64
2022/02/26 07:00:34;;;;;;;10.07;4.45;;;3.20;99.90;;;;;;5162789;22;19903;-64
2022/02/26 07:02:34;;;;;;;20.58;6.20;;;3.20;99.90;;;;;;5163418;22;20019;-64
2022/02/26 07:04:35;;;;;;;12.65;5.05;;;3.20;99.90;;;;;;5164374;22;20008;-64
2022/02/26 07:06:36;;;;;;;18.73;5.53;;;3.20;99.90;;;;;;5162904;22;20016;-64
2022/02/26 07:08:36;;;;;;;16.10;5.85;;;3.20;99.90;;;;;;5163581;22;20020;-65
2022/02/26 07:10:37;;;;;;;20.02;7.35;;;3.20;99.90;;;;;;5162761;22;20008;-65
2022/02/26 07:12:38;;;;;;;28.13;11.07;;;3.20;99.90;;;;;;5163887;22;20011;-64
2022/02/26 07:14:39;;;;;;;18.92;9.60;;;3.20;99.90;;;;;;5163779;22;20300;-64
2022/02/26 07:16:40;;;;;;;15.32;7.10;;;3.30;99.90;;;;;;5162550;22;20030;-64
2022/02/26 07:18:41;;;;;;;11.40;5.40;;;3.30;99.90;;;;;;5163548;22;20427;-64
2022/02/26 07:20:42;;;;;;;7.82;4.95;;;3.30;99.90;;;;;;5160753;23;20012;-64
2022/02/26 07:22:42;;;;;;;8.20;4.95;;;3.20;99.90;;;;;;5163309;22;20008;-65
2022/02/26 07:24:43;;;;;;;8.40;5.45;;;3.10;99.90;;;;;;5165226;22;20375;-66
2022/02/26 07:26:43;;;;;;;8.45;5.50;;;2.90;99.90;;;;;;5164112;22;20040;-65
2022/02/26 07:28:44;;;;;;;6.78;4.95;;;2.60;99.90;;;;;;5164742;22;20016;-64
2022/02/26 07:30:46;;;;;;;6.95;5.70;;;2.30;99.90;;;;;;5164644;22;20012;-65
2022/02/26 07:32:46;;;;;;;8.00;5.90;;;2.30;99.90;;;;;;5166904;22;20008;-64
2022/02/26 07:34:47;;;;;;;5.95;4.68;;;2.20;99.90;;;;;;5165826;22;20075;-64
2022/02/26 07:36:47;;;;;;;7.22;5.30;;;2.20;99.90;;;;;;5164582;22;20335;-64
2022/02/26 07:38:48;;;;;;;6.05;4.88;;;2.20;99.90;;;;;;5165678;22;20347;-64
2022/02/26 07:40:49;;;;;;;6.90;4.82;;;2.30;99.90;;;;;;5160925;22;20146;-65
2022/02/26 07:42:50;;;;;;;10.25;5.95;;;2.30;99.90;;;;;;5164858;22;20012;-65
2022/02/26 07:44:50;;;;;;;7.90;5.63;;;2.40;99.90;;;;;;5164985;22;20008;-64
2022/02/26 07:46:51;;;;;;;8.50;5.45;;;2.50;99.90;;;;;;5164103;22;20017;-64
2022/02/26 07:48:52;;;;;;;10.10;5.93;;;2.60;99.90;;;;;;5162537;22;20023;-64
2022/02/26 07:50:52;;;;;;;7.78;5.28;;;2.60;99.90;;;;;;5164298;22;20041;-65
2022/02/26 07:52:53;;;;;;;10.25;6.05;;;2.70;99.90;;;;;;5165874;22;20016;-65
2022/02/26 07:54:54;;;;;;;11.90;6.57;;;2.70;99.90;;;;;;5165699;22;20008;-64
2022/02/26 07:56:54;;;;;;;10.05;5.97;;;2.80;99.90;;;;;;5164621;22;20004;-64
2022/02/26 07:58:55;;;;;;;11.68;6.60;;;2.90;99.90;;;;;;5164914;22;20020;-63
2022/02/26 08:00:55;;;;;;;13.00;6.78;;;2.90;99.90;;;;;;5164831;22;20494;-63
2022/02/26 08:02:57;;;;;;;11.70;6.40;;;3.00;99.90;;;;;;5164905;22;20381;-63
2022/02/26 08:04:58;;;;;;;11.68;6.65;;;3.00;99.90;;;;;;5165365;22;20392;-63
2022/02/26 08:06:58;;;;;;;10.10;6.65;;;3.10;99.90;;;;;;5163993;22;20036;-63
2022/02/26 08:08:59;;;;;;;8.95;6.95;;;3.20;99.90;;;;;;5165108;22;20017;-63
2022/02/26 08:11:00;;;;;;;11.77;7.07;;;3.20;99.90;;;;;;5162086;23;20043;-63
2022/02/26 08:13:01;;;;;;;12.20;6.95;;;3.20;99.90;;;;;;5165059;22;20027;-63
2022/02/26 08:15:02;;;;;;;12.38;7.38;;;3.20;99.90;;;;;;5165214;22;20062;-63
2022/02/26 08:17:04;;;;;;;13.68;7.45;;;3.30;99.90;;;;;;5164051;22;20008;-63
2022/02/26 08:19:04;;;;;;;14.27;8.57;;;3.30;99.90;;;;;;5164469;22;20103;-63
2022/02/26 08:21:05;;;;;;;15.38;8.77;;;3.30;99.90;;;;;;5164184;22;20012;-63
2022/02/26 08:23:06;;;;;;;19.60;8.50;;;3.30;99.90;;;;;;5164405;22;20432;-64
2022/02/26 08:25:07;;;;;;;12.77;7.10;;;3.30;99.90;;;;;;5163276;22;20012;-64
2022/02/26 08:27:08;;;;;;;15.95;7.55;;;3.30;99.90;;;;;;5163555;22;20070;-63
2022/02/26 08:29:09;;;;;;;11.20;7.50;;;3.30;99.90;;;;;;5163961;22;20083;-63
2022/02/26 08:31:09;;;;;;;14.32;7.55;;;3.40;99.90;;;;;;5163402;22;20016;-63
2022/02/26 08:33:10;;;;;;;13.32;7.97;;;3.30;99.90;;;;;;5164134;22;20108;-64
2022/02/26 08:35:12;;;;;;;10.52;7.03;;;3.30;99.90;;;;;;5162535;22;20013;-64
2022/02/26 08:37:13;;;;;;;10.02;6.82;;;3.20;99.90;;;;;;5162635;22;20008;-64
2022/02/26 08:39:13;;;;;;;7.80;5.38;;;3.20;99.90;;;;;;5164825;22;20058;-65
2022/02/26 08:41:14;;;;;;;11.90;6.10;;;3.10;99.90;;;;;;5164430;22;20018;-64
2022/02/26 08:43:15;;;;;;;9.45;6.22;;;3.10;99.90;;;;;;5164722;22;20058;-63
2022/02/26 08:45:15;;;;;;;8.63;6.22;;;3.10;99.90;;;;;;5163705;22;20059;-63
2022/02/26 08:47:18;;;;;;;9.60;7.10;;;3.20;99.90;;;;;;5163337;22;20332;-63
2022/02/26 08:49:18;;;;;;;8.35;6.30;;;3.10;99.90;;;;;;5164740;22;20028;-63
2022/02/26 08:51:19;;;;;;;10.85;6.88;;;3.10;99.90;;;;;;5163967;22;20016;-63
2022/02/26 08:53:19;;;;;;;8.57;6.18;;;3.10;99.90;;;;;;5164629;22;20032;-63
2022/02/26 08:55:20;;;;;;;14.00;7.82;;;3.20;99.90;;;;;;5163817;22;20015;-63
2022/02/26 08:57:21;;;;;;;11.20;7.40;;;3.10;99.90;;;;;;5164029;22;20112;-63
2022/02/26 08:59:22;;;;;;;9.55;6.82;;;3.20;99.90;;;;;;5162978;22;20459;-63
2022/02/26 09:01:22;;;;;;;12.02;7.88;;;3.20;99.90;;;;;;5163272;22;20008;-63
2022/02/26 09:03:23;;;;;;;9.32;6.68;;;3.10;99.90;;;;;;5164769;22;22588;-63
2022/02/26 09:05:24;;;;;;;10.18;7.15;;;3.10;99.90;;;;;;5162957;22;20016;-63
2022/02/26 09:07:24;;;;;;;13.23;7.55;;;3.10;99.90;;;;;;5164183;22;20004;-63
2022/02/26 09:09:25;;;;;;;8.68;6.53;;;3.10;99.90;;;;;;5163452;22;20020;-64
2022/02/26 09:11:26;;;;;;;12.13;7.55;;;3.20;99.90;;;;;;5163219;22;20491;-64
2022/02/26 09:13:27;;;;;;;11.23;7.63;;;3.20;99.90;;;;;;5163945;22;20009;-63
2022/02/26 09:15:28;;;;;;;14.98;8.52;;;3.20;99.90;;;;;;5163011;22;20448;-64
2022/02/26 09:17:29;;;;;;;9.63;6.93;;;3.10;99.90;;;;;;5163604;22;20008;-63
2022/02/26 09:19:29;;;;;;;10.70;7.40;;;3.20;99.90;;;;;;5163419;22;20043;-64
2022/02/26 09:21:30;;;;;;;15.57;8.65;;;3.30;99.90;;;;;;5163377;22;20106;-64
2022/02/26 09:23:31;;;;;;;15.10;8.57;;;3.40;99.90;;;;;;5163924;22;20017;-64
2022/02/26 09:25:31;;;;;;;10.00;6.93;;;3.30;99.90;;;;;;5162525;22;20005;-63
2022/02/26 09:27:32;;;;;;;14.13;7.35;;;3.40;99.90;;;;;;5163581;22;20004;-63
2022/02/26 09:29:32;;;;;;;13.73;8.05;;;3.50;99.90;;;;;;5186471;22;20031;-64
2022/02/26 09:31:33;;;;;;;16.58;9.23;;;3.50;99.90;;;;;;5160628;23;20460;-63
2022/02/26 09:33:34;;;;;;;15.20;9.05;;;3.50;99.90;;;;;;5163365;22;20004;-64
2022/02/26 09:35:35;;;;;;;21.42;9.50;;;3.60;99.90;;;;;;5162051;22;20034;-64
2022/02/26 09:37:35;;;;;;;13.43;8.63;;;3.60;99.90;;;;;;5163197;22;20032;-65
2022/02/26 09:39:36;;;;;;;16.13;9.55;;;3.60;99.90;;;;;;5163739;22;20111;-65
2022/02/26 09:41:38;;;;;;;13.18;9.68;;;3.60;99.90;;;;;;5163103;22;20015;-64
2022/02/26 09:43:39;;;;;;;18.13;9.55;;;3.60;99.90;;;;;;5163925;22;20019;-64
2022/02/26 09:45:40;;;;;;;18.73;11.07;;;3.50;99.90;;;;;;5162498;22;20424;-64
2022/02/26 09:47:41;;;;;;;18.42;10.05;;;3.50;99.90;;;;;;5160832;23;20087;-64
2022/02/26 09:49:42;;;;;;;20.98;11.60;;;3.50;99.90;;;;;;5162970;22;20441;-64
2022/02/26 09:51:45;;;;;;;21.63;11.68;;;3.50;99.90;;;;;;5160382;23;20082;-64
2022/02/26 09:53:46;;;;;;;17.33;10.30;;;3.50;99.90;;;;;;5161122;23;20008;-64
2022/02/26 09:55:47;;;;;;;16.98;10.05;;;3.60;99.90;;;;;;5163445;22;20008;-64
2022/02/26 09:57:47;;;;;;;18.75;10.20;;;3.70;99.90;;;;;;5163905;22;20387;-64
2022/02/26 09:59:48;;;;;;;19.15;11.43;;;3.70;99.90;;;;;;5164108;22;20451;-64
2022/02/26 10:02:07;;;;;;;21.98;11.32;;;3.70;99.90;;;;;;5163308;22;20016;-64
2022/02/26 10:04:11;;;;;;;20.45;11.05;;;3.80;99.90;;;;;;5161321;23;20012;-64
2022/02/26 10:06:17;;;;;;;19.48;11.65;;;3.80;99.90;;;;;;5162055;22;20019;-64
2022/02/26 10:08:19;;;;;;;21.25;12.13;;;3.90;99.90;;;;;;5162123;22;20012;-64
2022/02/26 10:10:22;;;;;;;25.33;13.70;;;3.90;99.90;;;;;;5160375;22;20038;-64
2022/02/26 10:12:33;;;;;;;24.33;12.75;;;3.90;99.90;;;;;;5163626;22;20448;-64
2022/02/26 10:14:35;;;;;;;25.60;11.45;;;4.00;99.90;;;;;;5162731;22;20044;-64
2022/02/26 10:16:44;;;;;;;23.70;12.95;;;4.00;99.90;;;;;;5161435;22;20015;-65
2022/02/26 10:18:55;;;;;;;27.10;14.25;;;4.10;99.90;;;;;;5162590;22;20023;-64
2022/02/26 10:20:59;;;;;;;26.73;14.38;;;4.10;99.90;;;;;;5163218;22;20043;-64
2022/02/26 10:22:59;;;;;;;28.42;15.23;;;4.10;99.90;;;;;;5163233;22;20071;-63
2022/02/26 10:25:07;;;;;;;33.28;16.17;;;4.10;99.90;;;;;;5163356;22;20035;-64
2022/02/26 10:27:11;;;;;;;35.85;16.60;;;4.20;99.90;;;;;;5161911;22;20004;-64
2022/02/26 10:29:15;;;;;;;34.42;16.13;;;4.20;99.90;;;;;;5162596;22;20008;-64
2022/02/26 10:31:15;;;;;;;33.92;16.58;;;4.30;99.90;;;;;;5161654;22;20051;-65